createdAt,value
2019-01-27T15:25:21.773Z,18.10
2019-01-27T15:27:51.704Z,16.10
2019-01-27T15:30:30.104Z,14.40
2019-01-27T15:32:59.964Z,12.80
2019-01-27T15:35:29.981Z,11.30
2019-01-27T15:37:59.732Z,10.20
2019-01-27T15:40:29.659Z,9.30
2019-01-27T15:42:59.442Z,8.50
2019-01-27T15:45:33.842Z,7.90
2019-01-27T15:48:03.617Z,7.50
2019-01-27T15:50:35.052Z,7.10
2019-01-27T15:53:05.899Z,6.80
2019-01-27T15:55:38.422Z,6.50
2019-01-27T15:58:09.334Z,6.30
2019-01-27T16:00:39.159Z,6.20
2019-01-27T16:03:09.985Z,6.00
2019-01-27T16:05:52.498Z,5.90
2019-01-27T16:08:22.512Z,5.80
2019-01-27T16:10:53.605Z,5.70
2019-01-27T16:13:24.128Z,5.60
2019-01-27T16:15:55.114Z,5.50
2019-01-27T16:18:25.000Z,5.40
2019-01-27T16:20:54.871Z,5.40
2019-01-27T16:23:32.304Z,5.30
2019-01-27T16:26:03.344Z,5.20
2019-01-27T16:28:34.474Z,5.10
2019-01-27T16:31:11.793Z,5.10
2019-01-27T16:33:46.008Z,5.00
2019-01-27T16:36:16.972Z,5.00
2019-01-27T16:38:47.149Z,4.90
2019-01-27T16:41:16.972Z,4.90
2019-01-27T16:43:46.747Z,4.90
2019-01-27T16:46:18.417Z,4.80
2019-01-27T16:48:48.193Z,4.80
2019-01-27T16:51:18.042Z,4.80
2019-01-27T16:53:47.836Z,4.70
2019-01-27T16:56:28.646Z,4.60
2019-01-27T16:58:59.523Z,4.60
2019-01-27T17:01:29.658Z,4.70
2019-01-27T17:03:59.433Z,4.70
2019-01-27T17:06:33.481Z,4.60
2019-01-27T17:09:05.871Z,4.70
2019-01-27T17:11:36.605Z,4.60
2019-01-27T17:14:06.481Z,4.60
2019-01-27T17:16:36.501Z,4.50
2019-01-27T17:19:06.517Z,4.60
2019-01-27T17:21:40.697Z,4.60
2019-01-27T17:24:10.570Z,4.60
2019-01-27T17:26:41.446Z,4.50
2019-01-27T17:31:56.770Z,5.50
2019-01-27T17:34:28.173Z,5.50
2019-01-27T17:36:58.681Z,5.30
2019-01-27T17:39:28.989Z,5.20
2019-01-27T17:41:58.952Z,5.00
2019-01-27T17:44:32.344Z,4.90
2019-01-27T17:47:02.333Z,4.70
2019-01-27T17:49:32.685Z,4.60
2019-01-27T17:52:02.801Z,4.60
2019-01-27T17:54:32.890Z,4.50
2019-01-27T17:57:04.383Z,4.40
2019-01-27T17:59:36.485Z,4.40
2019-01-27T18:02:17.180Z,4.30
2019-01-27T18:04:48.872Z,4.20
2019-01-27T18:07:20.389Z,4.20
2019-01-27T18:10:00.853Z,4.20
2019-01-27T18:12:32.588Z,4.20
2019-01-27T18:15:03.858Z,4.20
2019-01-27T18:17:35.053Z,4.20
2019-01-27T18:20:07.882Z,4.20
2019-01-27T18:22:38.110Z,4.20
2019-01-27T18:25:30.488Z,4.20
2019-01-27T18:28:25.146Z,4.20
2019-01-27T18:30:55.401Z,4.20
2019-01-27T18:33:25.388Z,4.20
2019-01-27T18:35:56.834Z,4.20
2019-01-27T18:38:26.977Z,4.10
2019-01-27T18:40:57.564Z,4.10
2019-01-27T18:43:27.608Z,4.00
2019-01-27T18:45:58.930Z,3.90
2019-01-27T18:48:32.037Z,3.90
2019-01-27T18:51:02.877Z,3.80
2019-01-27T18:53:47.048Z,3.80
2019-01-27T18:56:36.698Z,3.80
2019-01-27T18:59:24.744Z,3.80
2019-01-27T19:02:07.461Z,3.80
2019-01-27T19:04:39.110Z,3.80
2019-01-27T19:07:11.345Z,3.80
2019-01-27T19:09:57.010Z,3.80
2019-01-27T19:12:28.951Z,3.80
2019-01-27T19:15:30.379Z,3.80
2019-01-27T19:18:18.493Z,3.80
2019-01-27T19:20:50.441Z,3.90
2019-01-27T19:23:39.037Z,3.90
2019-01-27T19:26:10.792Z,3.80
2019-01-27T19:29:01.297Z,3.80
2019-01-27T19:31:32.852Z,3.70
2019-01-27T19:34:25.493Z,3.70
2019-01-27T19:36:57.987Z,3.70
2019-01-27T19:39:32.844Z,3.70
2019-01-27T19:42:07.520Z,3.70
2019-01-27T19:44:41.800Z,3.70
2019-01-27T19:47:13.394Z,3.70
2019-01-27T19:49:47.852Z,3.70
2019-01-27T19:52:19.572Z,3.70
2019-01-27T19:54:51.347Z,3.70
2019-01-27T19:57:23.310Z,3.80
2019-01-27T20:00:01.229Z,3.80
2019-01-27T20:02:36.432Z,3.80
2019-01-27T20:05:10.207Z,3.80
2019-01-27T20:07:41.793Z,3.80
2019-01-27T20:13:14.933Z,3.90
2019-01-27T20:15:54.104Z,3.90
2019-01-27T20:18:43.506Z,3.90
2019-01-27T20:21:15.180Z,3.90
2019-01-27T20:23:49.585Z,3.90
2019-01-27T20:26:36.315Z,3.80
2019-01-27T20:29:14.297Z,3.80
2019-01-27T20:31:57.934Z,5.20
2019-01-27T20:34:42.076Z,7.20
2019-01-27T20:37:21.515Z,9.60
2019-01-27T20:39:56.333Z,11.80
2019-01-27T20:42:33.942Z,13.50
